Terminal Aerodrome Forecast
Issued by NWS Green Bay, WI

Home | Current Version | Previous Version | Text Only | Print | Product List | Glossary Off
Versions: 1 2 3 4 5 6 7 8 9 10 11 12 13 14 15 16 17 18 19 20 21 22 23 24

000
FTUS43 KGRB 090500
TAFGRB
TAF
KGRB 090532Z 0906/1006 33006KT P6SM SCT025 BKN110
      TEMPO 0906/0908 -RA SCT010 BKN025
     FM091000 30004KT P6SM VCSH SCT020 BKN040
     FM091500 30008KT P6SM SCT035 BKN080
     FM091700 30009G14KT P6SM VCSH SCT030 BKN070
     FM100100 VRB03KT P6SM SCT070 SCT100=

USA.gov is the U.S. government's official web portal to all federal, state and local government web resources and services.